Startpagina
METAR-TAF:

METAR-TAF

Vliegvelden :

Nörvenich, Duitsland

breedte: 50-50N, lengte: 006-40E, hoogte: 118 m

Actueel weer

Dit bericht is 1 uur en het 9 minuten geleden gemaakt, om 09:20 UTC
Wind 7 kt uit het westzuidwesten
Temperatuur 5°C
Vochtigheid 75%
Druk 1013 hPa
Zicht 10 km of meer
Gebroken wolken op 2200 ft

METAR: ETNN 160920Z 24007KT 9999 BKN022 05/01 Q1013 WHT BLU TEMPO WHT

Tijdstip: 11:29 (10:29 UTC)

Verwachting

Dit bericht is 2 uur en het 29 minuten geleden gemaakt, om 08:00 UTC
Verwachting geldig van 16 om 09 UTC tot 16 om 18 UTC
Wind 10 kt uit het zuidwesten
Zicht 10 km of meer
Weinig wolken op 1500 ft
Gebroken wolken op 3000 ft
Tijdelijke
van 16 om 09 UTC tot 16 om 18 UTC
Wind 15 kt uit het westzuidwesten
Zicht: 8000 m
Weinig wolken op 1200 ft
Gebroken wolken op 2000 ft

TAF: ETNN 160800Z 1609/1618 22010KT 9999 NSW FEW015 BKN030 TEMPO 1609/1618 24015KT 8000 NSW FEW012 BKN020 BY ETGL

Waarnemingen en weersverwachtingen van meer dan 4000 vliegvelden (METAR en TAF).

De beschikbare stations zijn de gele en rode punten op de kaart.

Ga met uw muis naar het station om de naam te zien.

Klik dan om waarnemingen en weersverwachtingen te zien.

kaart wijzigen: klik op de groene knoppen met een zwart kruis om in te zoomen, op de groene knop met een streepje om uit te zoomen of op de groene pijlen voor aangrenzende kaarten.


METAR-TAF: